Time;durP1;ratioP1;P1;durP2;ratioP2;P2;SDS_P1;SDS_P2;PMS_P1;PMS_P2;Temp;Humidity;BMP_temperature;BMP_pressure;BME280_temperature;BME280_humidity;BME280_pressure;Samples;Min_cycle;Max_cycle;Signal;HPM_P1;HPM_P2
2021/11/24 00:00:19;;;;;;;13.00;8.23;;;;;;;;;;4415692;32;20300;-59
2021/11/24 00:02:46;;;;;;;14.77;8.53;;;;;;;;;;4414228;32;20382;-60
2021/11/24 00:05:11;;;;;;;12.33;8.63;;;;;;;;;;4415557;32;20360;-59
2021/11/24 00:07:39;;;;;;;13.83;8.93;;;;;;;;;;4415095;32;20386;-59
2021/11/24 00:10:05;;;;;;;16.77;9.33;;;;;;;;;;4417747;32;20209;-59
2021/11/24 00:12:31;;;;;;;18.47;9.03;;;;;;;;;;4417980;32;20205;-59
2021/11/24 00:14:56;;;;;;;15.33;9.60;;;;;;;;;;4417361;32;20683;-58
2021/11/24 00:17:22;;;;;;;16.60;9.10;;;;;;;;;;4416631;32;20317;-59
2021/11/24 00:19:47;;;;;;;14.20;9.40;;;;;;;;;;4416124;32;20676;-59
2021/11/24 00:22:13;;;;;;;16.53;8.90;;;;;;;;;;4416590;32;20332;-59
2021/11/24 00:24:38;;;;;;;14.73;9.57;;;;;;;;;;4417880;32;20557;-59
2021/11/24 00:27:04;;;;;;;10.23;8.07;;;;;;;;;;4417459;32;20208;-59
2021/11/24 00:29:29;;;;;;;12.97;9.53;;;;;;;;;;4416715;32;20291;-59
2021/11/24 00:31:55;;;;;;;13.33;8.93;;;;;;;;;;4417457;32;20273;-59
2021/11/24 00:34:20;;;;;;;12.40;8.77;;;;;;;;;;4417478;32;20623;-59
2021/11/24 00:36:46;;;;;;;13.40;8.57;;;;;;;;;;4417331;32;20278;-59
2021/11/24 00:39:11;;;;;;;19.73;10.83;;;;;;;;;;4417807;32;20233;-59
2021/11/24 00:41:37;;;;;;;16.57;10.63;;;;;;;;;;4417468;32;20288;-59
2021/11/24 00:44:02;;;;;;;15.87;9.80;;;;;;;;;;4417416;32;20310;-59
2021/11/24 00:46:28;;;;;;;15.57;9.60;;;;;;;;;;4417329;32;20638;-59
2021/11/24 00:48:53;;;;;;;17.43;10.23;;;;;;;;;;4417509;32;20233;-59
2021/11/24 00:51:19;;;;;;;17.73;10.07;;;;;;;;;;4417235;32;20244;-60
2021/11/24 00:53:44;;;;;;;15.60;9.30;;;;;;;;;;4417395;32;20300;-59
2021/11/24 00:56:11;;;;;;;24.53;12.90;;;;;;;;;;4417476;32;20288;-58
2021/11/24 00:58:36;;;;;;;18.03;12.47;;;;;;;;;;4417191;32;20237;-59
2021/11/24 01:01:02;;;;;;;19.47;11.40;;;;;;;;;;4417088;32;20655;-60
2021/11/24 01:03:27;;;;;;;18.13;10.60;;;;;;;;;;4416833;32;20303;-59
2021/11/24 01:05:53;;;;;;;14.63;9.97;;;;;;;;;;4417575;32;20276;-58
2021/11/24 01:08:19;;;;;;;18.23;10.23;;;;;;;;;;4416304;32;20331;-59
2021/11/24 01:10:45;;;;;;;16.17;10.00;;;;;;;;;;4416783;32;21079;-59
2021/11/24 01:13:13;;;;;;;20.90;11.03;;;;;;;;;;4417140;32;20229;-60
2021/11/24 01:15:39;;;;;;;20.40;10.10;;;;;;;;;;4417431;32;20239;-59
2021/11/24 01:18:05;;;;;;;18.40;11.47;;;;;;;;;;4417226;32;20229;-58
2021/11/24 01:20:31;;;;;;;30.43;13.70;;;;;;;;;;4416999;32;20288;-60
2021/11/24 01:22:57;;;;;;;24.73;12.77;;;;;;;;;;4417410;32;20403;-61
2021/11/24 01:25:22;;;;;;;20.07;11.07;;;;;;;;;;4417183;32;20631;-59
2021/11/24 01:27:48;;;;;;;18.37;10.20;;;;;;;;;;4415198;32;20659;-59
2021/11/24 01:30:14;;;;;;;16.27;9.13;;;;;;;;;;4415613;32;20312;-59
2021/11/24 01:32:40;;;;;;;20.03;11.33;;;;;;;;;;4416642;32;20393;-59
2021/11/24 01:35:07;;;;;;;20.43;10.57;;;;;;;;;;4416425;32;20284;-59
2021/11/24 01:37:33;;;;;;;21.13;11.33;;;;;;;;;;4416431;32;20248;-59
2021/11/24 01:39:59;;;;;;;17.30;10.27;;;;;;;;;;4416547;32;20371;-59
2021/11/24 01:42:26;;;;;;;11.57;7.70;;;;;;;;;;4416585;32;20217;-59
2021/11/24 01:44:51;;;;;;;12.33;7.70;;;;;;;;;;4416557;32;20280;-58
2021/11/24 01:47:17;;;;;;;12.27;8.10;;;;;;;;;;4415065;32;20734;-59
2021/11/24 01:49:43;;;;;;;11.53;7.93;;;;;;;;;;4416486;32;20621;-58
2021/11/24 01:52:08;;;;;;;13.30;8.70;;;;;;;;;;4416209;32;20282;-58
2021/11/24 01:54:34;;;;;;;11.53;7.53;;;;;;;;;;4416314;32;20237;-59
2021/11/24 01:57:00;;;;;;;12.83;8.30;;;;;;;;;;4416187;32;20217;-59
2021/11/24 01:59:26;;;;;;;13.40;8.40;;;;;;;;;;4416398;32;20288;-59
2021/11/24 02:01:52;;;;;;;16.77;9.20;;;;;;;;;;4415690;32;20233;-59
2021/11/24 02:04:18;;;;;;;15.37;9.27;;;;;;;;;;4416281;32;20636;-60
2021/11/24 02:06:44;;;;;;;15.97;8.60;;;;;;;;;;4415387;32;20221;-59
2021/11/24 02:09:11;;;;;;;11.57;8.17;;;;;;;;;;4416455;32;20263;-60
2021/11/24 02:11:40;;;;;;;14.43;8.83;;;;;;;;;;4415761;32;20279;-58
2021/11/24 02:14:08;;;;;;;16.47;9.70;;;;;;;;;;4416373;32;20237;-59
2021/11/24 02:16:43;;;;;;;18.93;10.63;;;;;;;;;;4416329;32;20213;-59
2021/11/24 02:19:08;;;;;;;17.90;10.80;;;;;;;;;;4416124;32;20678;-59
2021/11/24 02:21:35;;;;;;;10.17;7.30;;;;;;;;;;4415877;32;20284;-59
2021/11/24 02:24:00;;;;;;;11.67;7.43;;;;;;;;;;4414670;32;20742;-58
2021/11/24 02:26:26;;;;;;;11.33;7.90;;;;;;;;;;4414753;32;20280;-59
2021/11/24 02:28:51;;;;;;;11.10;7.50;;;;;;;;;;4416082;32;20237;-59
2021/11/24 02:31:24;;;;;;;11.70;7.63;;;;;;;;;;4415505;32;20687;-59
2021/11/24 02:33:54;;;;;;;9.23;7.13;;;;;;;;;;4414875;32;20600;-59
2021/11/24 02:36:20;;;;;;;12.60;7.13;;;;;;;;;;4414521;32;20260;-59
2021/11/24 02:38:46;;;;;;;10.27;7.77;;;;;;;;;;4415699;32;20237;-58
2021/11/24 02:41:12;;;;;;;9.73;7.20;;;;;;;;;;4415653;32;20772;-59
2021/11/24 02:43:38;;;;;;;13.17;8.13;;;;;;;;;;4415955;32;20307;-58
2021/11/24 02:46:04;;;;;;;14.63;8.20;;;;;;;;;;4414252;32;20311;-60
2021/11/24 02:48:29;;;;;;;8.03;6.47;;;;;;;;;;4415706;32;20252;-59
2021/11/24 02:50:55;;;;;;;10.87;8.13;;;;;;;;;;4414230;32;20299;-59
2021/11/24 02:53:31;;;;;;;10.10;7.67;;;;;;;;;;4416006;32;20270;-58
2021/11/24 02:55:58;;;;;;;9.73;7.80;;;;;;;;;;4415467;32;20219;-59
2021/11/24 02:58:24;;;;;;;15.30;8.43;;;;;;;;;;4401822;32;20267;-59
2021/11/24 03:00:53;;;;;;;12.60;9.07;;;;;;;;;;4415499;32;20280;-60
2021/11/24 03:03:19;;;;;;;13.90;9.00;;;;;;;;;;4414985;32;20258;-58
2021/11/24 03:05:45;;;;;;;11.17;7.90;;;;;;;;;;4415693;32;20340;-58
2021/11/24 03:08:10;;;;;;;12.23;7.93;;;;;;;;;;4415530;32;20251;-62
2021/11/24 03:10:36;;;;;;;14.33;8.33;;;;;;;;;;4415514;32;20288;-59
2021/11/24 03:13:02;;;;;;;12.07;8.20;;;;;;;;;;4414300;32;20267;-58
2021/11/24 03:15:28;;;;;;;11.37;7.67;;;;;;;;;;4415408;32;20311;-59
2021/11/24 03:17:54;;;;;;;11.60;7.17;;;;;;;;;;4415293;32;20515;-58
2021/11/24 03:20:20;;;;;;;10.67;8.10;;;;;;;;;;4415322;32;20434;-58
2021/11/24 03:22:46;;;;;;;11.97;8.37;;;;;;;;;;4413995;32;20260;-59
2021/11/24 03:25:13;;;;;;;13.17;8.87;;;;;;;;;;4415446;32;20302;-59
2021/11/24 03:27:40;;;;;;;10.67;7.63;;;;;;;;;;4415069;32;20252;-59
2021/11/24 03:30:13;;;;;;;12.23;7.83;;;;;;;;;;4413984;32;20271;-59
2021/11/24 03:32:39;;;;;;;12.83;7.77;;;;;;;;;;4414966;32;20327;-58
2021/11/24 03:35:05;;;;;;;12.77;8.53;;;;;;;;;;4415740;32;20621;-60
2021/11/24 03:37:31;;;;;;;13.00;9.07;;;;;;;;;;4414105;32;20312;-59
2021/11/24 03:39:57;;;;;;;10.60;7.63;;;;;;;;;;4414242;32;20661;-59
2021/11/24 03:42:22;;;;;;;12.17;7.87;;;;;;;;;;4416163;32;20220;-60
2021/11/24 03:44:48;;;;;;;14.13;9.57;;;;;;;;;;4418333;32;20682;-59
2021/11/24 03:47:14;;;;;;;15.77;11.83;;;;;;;;;;4418513;32;20319;-59
2021/11/24 03:49:39;;;;;;;20.57;12.10;;;;;;;;;;4418529;32;20229;-59
2021/11/24 03:52:06;;;;;;;17.77;11.93;;;;;;;;;;4418271;32;20689;-59
2021/11/24 03:54:31;;;;;;;16.37;11.63;;;;;;;;;;4418547;32;20275;-59
2021/11/24 03:56:57;;;;;;;16.50;11.10;;;;;;;;;;4416879;32;20657;-60
2021/11/24 03:59:23;;;;;;;15.67;10.93;;;;;;;;;;4418098;32;20233;-59
2021/11/24 04:01:49;;;;;;;16.80;11.80;;;;;;;;;;4417768;32;20259;-58
2021/11/24 04:04:14;;;;;;;14.50;10.10;;;;;;;;;;4418602;32;20332;-59
2021/11/24 04:06:40;;;;;;;13.80;9.70;;;;;;;;;;4417799;32;20274;-58
2021/11/24 04:09:05;;;;;;;13.73;9.20;;;;;;;;;;4418320;32;20240;-59
2021/11/24 04:11:31;;;;;;;15.23;9.20;;;;;;;;;;4417709;32;20212;-59
2021/11/24 04:13:57;;;;;;;11.37;7.43;;;;;;;;;;4418118;32;20326;-59
2021/11/24 04:16:22;;;;;;;14.80;9.67;;;;;;;;;;4418343;32;20209;-59
2021/11/24 04:18:48;;;;;;;13.03;7.70;;;;;;;;;;4416887;32;20644;-59
2021/11/24 04:21:15;;;;;;;13.33;9.13;;;;;;;;;;4429472;32;20350;-59
2021/11/24 04:23:40;;;;;;;14.10;8.60;;;;;;;;;;4417977;32;20322;-58
2021/11/24 04:26:06;;;;;;;10.90;8.47;;;;;;;;;;4418023;32;20752;-59
2021/11/24 04:28:31;;;;;;;10.17;7.57;;;;;;;;;;4417734;32;20233;-59
2021/11/24 04:30:57;;;;;;;9.27;7.40;;;;;;;;;;4417930;32;20322;-59
2021/11/24 04:33:22;;;;;;;11.03;7.87;;;;;;;;;;4416429;32;20550;-58
2021/11/24 04:35:48;;;;;;;18.30;10.00;;;;;;;;;;4417429;32;20344;-60
2021/11/24 04:38:14;;;;;;;16.63;10.27;;;;;;;;;;4417524;32;20229;-58
2021/11/24 04:40:39;;;;;;;17.07;10.93;;;;;;;;;;4428809;32;20661;-59
2021/11/24 04:43:08;;;;;;;14.57;10.30;;;;;;;;;;4416199;32;20562;-58
2021/11/24 04:45:34;;;;;;;14.50;10.30;;;;;;;;;;4417336;32;20690;-59
2021/11/24 04:47:59;;;;;;;16.70;9.77;;;;;;;;;;4417297;32;20312;-58
2021/11/24 04:50:25;;;;;;;18.03;11.57;;;;;;;;;;4417698;32;20308;-59
2021/11/24 04:52:50;;;;;;;23.40;14.00;;;;;;;;;;4417330;32;20233;-58
2021/11/24 04:55:16;;;;;;;18.77;11.37;;;;;;;;;;4416641;32;20360;-58
2021/11/24 04:57:42;;;;;;;18.67;12.77;;;;;;;;;;4417004;32;20277;-59
2021/11/24 05:00:14;;;;;;;19.07;13.03;;;;;;;;;;4417337;32;20307;-59
2021/11/24 05:02:39;;;;;;;18.67;11.77;;;;;;;;;;4416486;32;20689;-59
2021/11/24 05:05:05;;;;;;;27.20;15.43;;;;;;;;;;4417228;32;20389;-58
2021/11/24 05:07:30;;;;;;;27.53;16.83;;;;;;;;;;4417266;32;20213;-59
2021/11/24 05:09:56;;;;;;;31.70;19.50;;;;;;;;;;4416044;32;20312;-59
2021/11/24 05:12:22;;;;;;;34.80;20.73;;;;;;;;;;4415760;32;20297;-59
2021/11/24 05:14:49;;;;;;;36.07;22.73;;;;;;;;;;4417140;32;20335;-59
2021/11/24 05:17:17;;;;;;;40.77;22.27;;;;;;;;;;4416981;32;20221;-60
2021/11/24 05:19:47;;;;;;;31.13;19.10;;;;;;;;;;4415373;32;20229;-59
2021/11/24 05:22:13;;;;;;;36.87;17.93;;;;;;;;;;4416814;32;20245;-59
2021/11/24 05:24:38;;;;;;;31.67;19.13;;;;;;;;;;4428574;32;20236;-59
2021/11/24 05:27:04;;;;;;;37.60;21.87;;;;;;;;;;4417237;32;20231;-59
2021/11/24 05:29:30;;;;;;;39.17;21.50;;;;;;;;;;4417017;32;20260;-59
2021/11/24 05:31:55;;;;;;;35.37;21.80;;;;;;;;;;4416543;32;20221;-59
2021/11/24 05:34:21;;;;;;;37.60;21.83;;;;;;;;;;4417055;32;20255;-59
2021/11/24 05:36:46;;;;;;;33.37;20.23;;;;;;;;;;4416630;32;20264;-60
2021/11/24 05:39:12;;;;;;;31.83;16.37;;;;;;;;;;4416714;32;20256;-59
2021/11/24 05:41:41;;;;;;;26.67;13.80;;;;;;;;;;4416819;32;20360;-59
2021/11/24 05:44:18;;;;;;;24.03;12.53;;;;;;;;;;4416976;32;20641;-59
2021/11/24 05:46:49;;;;;;;19.17;12.03;;;;;;;;;;4416740;32;20202;-59
2021/11/24 05:49:15;;;;;;;19.23;13.73;;;;;;;;;;4416906;32;20236;-59
2021/11/24 05:51:40;;;;;;;24.03;13.53;;;;;;;;;;4416026;32;20661;-59
2021/11/24 05:54:06;;;;;;;22.83;13.73;;;;;;;;;;4428098;32;20626;-59
2021/11/24 05:56:34;;;;;;;25.17;15.67;;;;;;;;;;4416471;32;20289;-58
2021/11/24 05:59:00;;;;;;;23.63;15.07;;;;;;;;;;4415302;32;20244;-60
2021/11/24 06:01:26;;;;;;;22.90;16.13;;;;;;;;;;4416025;32;20255;-59
2021/11/24 06:03:51;;;;;;;29.83;17.63;;;;;;;;;;4416045;32;20276;-59
2021/11/24 06:06:17;;;;;;;25.37;16.90;;;;;;;;;;4401426;32;20269;-59
2021/11/24 06:08:42;;;;;;;30.97;18.17;;;;;;;;;;4416176;32;20241;-59
2021/11/24 06:11:08;;;;;;;33.87;18.63;;;;;;;;;;4416743;32;20350;-59
2021/11/24 06:13:34;;;;;;;23.63;15.93;;;;;;;;;;4416207;32;20252;-59
2021/11/24 06:15:59;;;;;;;36.87;20.00;;;;;;;;;;4416087;32;20291;-59
2021/11/24 06:18:24;;;;;;;37.87;23.13;;;;;;;;;;4416355;32;20305;-58
2021/11/24 06:20:50;;;;;;;44.03;22.03;;;;;;;;;;4415819;32;20325;-59
2021/11/24 06:23:15;;;;;;;44.33;25.10;;;;;;;;;;4415920;32;20232;-58
2021/11/24 06:25:41;;;;;;;45.70;23.37;;;;;;;;;;4415647;32;20833;-60
2021/11/24 06:28:07;;;;;;;39.67;25.63;;;;;;;;;;4402274;32;20704;-59
2021/11/24 06:30:33;;;;;;;31.80;19.60;;;;;;;;;;4415898;32;20763;-59
2021/11/24 06:32:58;;;;;;;46.27;23.07;;;;;;;;;;4415811;32;20233;-59
2021/11/24 06:35:24;;;;;;;32.23;18.07;;;;;;;;;;4416219;32;20564;-60
2021/11/24 06:37:49;;;;;;;32.93;16.63;;;;;;;;;;4415320;32;20236;-59
2021/11/24 06:40:15;;;;;;;21.90;14.77;;;;;;;;;;4416084;32;20310;-59
2021/11/24 06:42:41;;;;;;;44.20;26.37;;;;;;;;;;4415511;32;20279;-60
2021/11/24 06:45:08;;;;;;;37.93;22.03;;;;;;;;;;4410756;32;20243;-59
2021/11/24 06:47:35;;;;;;;29.60;19.53;;;;;;;;;;4409585;32;20694;-59
2021/11/24 06:50:00;;;;;;;28.77;18.43;;;;;;;;;;4415677;32;20249;-59
2021/11/24 06:52:26;;;;;;;24.47;14.93;;;;;;;;;;4414147;32;20378;-60
2021/11/24 06:54:51;;;;;;;23.13;13.17;;;;;;;;;;4414022;32;20357;-60
2021/11/24 06:57:17;;;;;;;23.50;14.70;;;;;;;;;;4413588;32;20646;-60
2021/11/24 06:59:43;;;;;;;25.67;16.43;;;;;;;;;;4413989;32;20539;-59
2021/11/24 07:02:08;;;;;;;32.50;17.17;;;;;;;;;;4413147;32;20716;-59
2021/11/24 07:04:34;;;;;;;32.90;19.67;;;;;;;;;;4412055;32;20750;-60
2021/11/24 07:06:59;;;;;;;62.03;29.73;;;;;;;;;;4412478;32;20646;-60
2021/11/24 07:09:26;;;;;;;51.40;28.10;;;;;;;;;;4411456;32;20249;-60
2021/11/24 07:11:52;;;;;;;49.20;26.70;;;;;;;;;;4413667;32;20248;-59
2021/11/24 07:14:17;;;;;;;55.37;25.10;;;;;;;;;;4412965;32;21196;-60
2021/11/24 07:16:42;;;;;;;44.10;26.20;;;;;;;;;;4414206;32;20362;-60
2021/11/24 07:19:08;;;;;;;51.13;26.97;;;;;;;;;;4418428;32;20290;-60
2021/11/24 07:21:34;;;;;;;37.57;18.83;;;;;;;;;;4420566;32;20292;-59
2021/11/24 07:24:00;;;;;;;34.27;17.97;;;;;;;;;;4420689;32;20267;-60
2021/11/24 07:26:25;;;;;;;28.03;15.73;;;;;;;;;;4420777;32;20208;-59
2021/11/24 07:28:51;;;;;;;21.27;14.10;;;;;;;;;;4419391;32;20303;-60
2021/11/24 07:31:17;;;;;;;23.37;14.43;;;;;;;;;;4420294;32;20263;-60
2021/11/24 07:33:42;;;;;;;21.60;13.60;;;;;;;;;;4420691;32;20725;-60
2021/11/24 07:36:08;;;;;;;25.37;17.70;;;;;;;;;;4420712;32;20359;-60
2021/11/24 07:38:33;;;;;;;22.47;15.07;;;;;;;;;;4420400;32;20387;-59
2021/11/24 07:40:59;;;;;;;28.43;16.77;;;;;;;;;;4420720;32;20315;-60
2021/11/24 07:43:25;;;;;;;34.50;16.97;;;;;;;;;;4419069;32;20249;-59
2021/11/24 07:45:51;;;;;;;28.90;19.50;;;;;;;;;;4419289;32;20338;-60
2021/11/24 07:48:17;;;;;;;25.60;15.23;;;;;;;;;;4419992;32;20308;-59
2021/11/24 07:50:42;;;;;;;28.13;18.93;;;;;;;;;;4420667;32;20372;-60
2021/11/24 07:53:08;;;;;;;32.77;20.47;;;;;;;;;;4419092;32;20279;-59
2021/11/24 07:55:33;;;;;;;36.33;22.83;;;;;;;;;;4420674;32;20340;-59
2021/11/24 07:57:59;;;;;;;29.70;17.70;;;;;;;;;;4420094;32;20280;-60
2021/11/24 08:00:24;;;;;;;36.47;16.60;;;;;;;;;;4420026;32;20288;-60
2021/11/24 08:02:50;;;;;;;23.20;13.10;;;;;;;;;;4414300;32;20248;-59
2021/11/24 08:05:16;;;;;;;27.37;15.20;;;;;;;;;;4420675;32;20311;-60
2021/11/24 08:07:42;;;;;;;38.90;20.07;;;;;;;;;;4420181;32;20240;-59
2021/11/24 08:10:12;;;;;;;33.80;19.00;;;;;;;;;;4420726;32;20720;-60
2021/11/24 08:12:39;;;;;;;27.23;16.37;;;;;;;;;;4419855;32;20375;-60
2021/11/24 08:15:05;;;;;;;36.20;19.63;;;;;;;;;;4420438;32;20797;-60
2021/11/24 08:17:30;;;;;;;34.83;21.43;;;;;;;;;;4418618;32;20257;-60
2021/11/24 08:19:56;;;;;;;19.67;13.80;;;;;;;;;;4420535;32;20271;-60
2021/11/24 08:22:23;;;;;;;16.10;11.73;;;;;;;;;;4419358;32;20233;-58
2021/11/24 08:24:49;;;;;;;19.57;13.23;;;;;;;;;;4419446;32;20285;-58
2021/11/24 08:27:15;;;;;;;18.23;11.40;;;;;;;;;;4419891;32;20213;-59
2021/11/24 08:29:40;;;;;;;16.83;11.57;;;;;;;;;;4417794;32;20236;-60
2021/11/24 08:32:06;;;;;;;17.07;12.00;;;;;;;;;;4417813;32;20668;-59
2021/11/24 08:34:32;;;;;;;21.60;13.07;;;;;;;;;;4415471;32;20236;-60
2021/11/24 08:36:58;;;;;;;21.10;12.17;;;;;;;;;;4417868;32;20678;-59
2021/11/24 08:39:25;;;;;;;21.07;13.23;;;;;;;;;;4416391;32;20255;-59
2021/11/24 08:41:51;;;;;;;18.80;13.33;;;;;;;;;;4402490;32;20228;-60
2021/11/24 08:44:16;;;;;;;16.13;12.00;;;;;;;;;;4404365;32;20319;-58
2021/11/24 08:46:42;;;;;;;19.80;13.00;;;;;;;;;;4401187;32;20236;-59
2021/11/24 08:49:07;;;;;;;19.83;13.00;;;;;;;;;;4402700;32;20400;-60
2021/11/24 08:51:35;;;;;;;20.53;12.50;;;;;;;;;;4402316;32;21289;-60
2021/11/24 08:54:00;;;;;;;17.77;10.80;;;;;;;;;;4401780;32;20237;-59
2021/11/24 08:56:27;;;;;;;16.40;11.50;;;;;;;;;;4402855;32;20202;-59
2021/11/24 08:58:52;;;;;;;23.50;12.70;;;;;;;;;;4417807;32;20276;-60
2021/11/24 09:01:18;;;;;;;16.90;12.57;;;;;;;;;;4417361;32;20289;-59
2021/11/24 09:03:43;;;;;;;22.63;13.07;;;;;;;;;;4417245;32;20244;-59
2021/11/24 09:06:10;;;;;;;19.13;12.97;;;;;;;;;;4417470;32;20318;-59
2021/11/24 09:08:35;;;;;;;28.60;15.43;;;;;;;;;;4417174;32;20530;-59
2021/11/24 09:11:02;;;;;;;22.53;15.10;;;;;;;;;;4417225;32;20751;-60
2021/11/24 09:13:27;;;;;;;23.83;15.77;;;;;;;;;;4415905;32;20296;-59
2021/11/24 09:15:53;;;;;;;24.20;12.87;;;;;;;;;;4417364;32;20367;-60
2021/11/24 09:18:18;;;;;;;19.17;12.30;;;;;;;;;;4417502;32;20233;-59
2021/11/24 09:20:45;;;;;;;19.43;12.03;;;;;;;;;;4417105;32;20663;-60
2021/11/24 09:23:13;;;;;;;15.27;9.13;;;;;;;;;;4415828;32;20582;-59
2021/11/24 09:25:49;;;;;;;19.77;12.20;;;;;;;;;;4416852;32;20205;-60
2021/11/24 09:28:18;;;;;;;18.20;11.87;;;;;;;;;;4416566;32;20228;-59
2021/11/24 09:30:44;;;;;;;25.40;15.60;;;;;;;;;;4416502;32;20248;-59
2021/11/24 09:33:10;;;;;;;29.63;13.70;;;;;;;;;;4416837;32;20229;-59
2021/11/24 09:35:36;;;;;;;19.37;12.53;;;;;;;;;;4415317;32;20292;-60
2021/11/24 09:38:04;;;;;;;16.77;9.97;;;;;;;;;;4412262;32;20383;-60
2021/11/24 09:40:31;;;;;;;12.07;8.20;;;;;;;;;;4400098;32;20241;-59
2021/11/24 09:43:00;;;;;;;13.90;9.40;;;;;;;;;;4407229;32;20335;-59
2021/11/24 09:45:27;;;;;;;16.90;10.23;;;;;;;;;;4414923;32;20252;-60
2021/11/24 09:47:56;;;;;;;30.77;16.77;;;;;;;;;;4416203;32;20237;-60
2021/11/24 09:50:25;;;;;;;39.63;20.67;;;;;;;;;;4416631;32;20213;-60
2021/11/24 09:52:55;;;;;;;28.77;16.73;;;;;;;;;;4416299;32;20247;-59
2021/11/24 09:55:21;;;;;;;19.83;12.93;;;;;;;;;;4416269;32;20209;-59
2021/11/24 09:57:48;;;;;;;18.87;12.43;;;;;;;;;;4416050;32;20264;-59
2021/11/24 10:00:15;;;;;;;16.17;11.63;;;;;;;;;;4416563;32;20233;-60
2021/11/24 10:02:42;;;;;;;17.97;11.10;;;;;;;;;;4415378;32;20320;-60
2021/11/24 10:05:09;;;;;;;18.43;12.00;;;;;;;;;;4416072;32;20342;-59
2021/11/24 10:07:34;;;;;;;16.97;12.20;;;;;;;;;;4414100;32;20347;-60
2021/11/24 10:10:00;;;;;;;26.40;15.83;;;;;;;;;;4414660;32;20625;-60
2021/11/24 10:12:25;;;;;;;23.37;14.60;;;;;;;;;;4415798;32;20634;-60
2021/11/24 10:14:51;;;;;;;21.13;13.13;;;;;;;;;;4427811;32;20297;-59
2021/11/24 10:17:23;;;;;;;26.93;14.03;;;;;;;;;;4415333;32;20217;-59
2021/11/24 10:19:57;;;;;;;14.90;10.90;;;;;;;;;;4414218;32;20327;-59
2021/11/24 10:22:23;;;;;;;21.93;13.03;;;;;;;;;;4414211;32;20274;-60
2021/11/24 10:25:01;;;;;;;25.03;14.03;;;;;;;;;;4416339;32;20618;-60
2021/11/24 10:27:48;;;;;;;21.83;9.93;;;;;;;;;;4415008;32;20286;-60
2021/11/24 10:30:25;;;;;;;32.97;15.30;;;;;;;;;;4416483;32;20759;-60
2021/11/24 10:32:52;;;;;;;15.83;10.07;;;;;;;;;;4416053;32;20679;-60
2021/11/24 10:35:26;;;;;;;13.97;9.67;;;;;;;;;;4414736;32;20225;-59
2021/11/24 10:38:12;;;;;;;13.27;9.07;;;;;;;;;;4415953;32;20281;-59
2021/11/24 10:40:42;;;;;;;17.53;12.43;;;;;;;;;;4415966;32;20209;-59
2021/11/24 10:43:12;;;;;;;19.33;11.43;;;;;;;;;;4416163;32;20315;-59
2021/11/24 10:45:37;;;;;;;20.80;11.47;;;;;;;;;;4415697;32;20617;-59
2021/11/24 10:48:03;;;;;;;16.47;9.50;;;;;;;;;;4415938;32;20317;-60
2021/11/24 10:50:34;;;;;;;14.13;10.07;;;;;;;;;;4415971;32;20360;-60
2021/11/24 10:52:59;;;;;;;14.93;11.07;;;;;;;;;;4415640;32;20221;-59
2021/11/24 10:55:27;;;;;;;19.37;12.83;;;;;;;;;;4416307;32;20333;-60
2021/11/24 10:58:18;;;;;;;22.90;13.87;;;;;;;;;;4416035;32;20363;-60
2021/11/24 11:00:48;;;;;;;22.10;12.17;;;;;;;;;;4415593;32;20239;-60
2021/11/24 11:03:14;;;;;;;16.23;11.00;;;;;;;;;;4415775;32;20319;-61
2021/11/24 11:05:42;;;;;;;20.40;13.23;;;;;;;;;;4416025;32;20356;-60
2021/11/24 11:08:10;;;;;;;19.37;11.90;;;;;;;;;;4416130;32;20326;-60
2021/11/24 11:10:36;;;;;;;15.57;11.07;;;;;;;;;;4414287;32;20288;-59
2021/11/24 11:13:12;;;;;;;14.57;10.10;;;;;;;;;;4414437;32;20278;-59
2021/11/24 11:15:41;;;;;;;22.03;15.27;;;;;;;;;;4416004;32;20310;-59
2021/11/24 11:18:09;;;;;;;24.10;12.70;;;;;;;;;;4416039;32;20305;-59
2021/11/24 11:20:44;;;;;;;18.47;12.20;;;;;;;;;;4415515;32;20205;-59
2021/11/24 11:23:17;;;;;;;17.30;11.37;;;;;;;;;;4415855;32;20617;-60
2021/11/24 11:26:05;;;;;;;18.10;13.27;;;;;;;;;;4415480;32;20224;-59
2021/11/24 11:28:41;;;;;;;27.97;17.53;;;;;;;;;;4410737;32;20869;-59
2021/11/24 11:31:11;;;;;;;22.97;14.47;;;;;;;;;;4398216;32;20212;-60
2021/11/24 11:33:42;;;;;;;16.00;11.90;;;;;;;;;;4396619;32;20240;-59
2021/11/24 11:36:11;;;;;;;19.93;13.60;;;;;;;;;;4396680;32;20327;-59
2021/11/24 11:38:43;;;;;;;17.57;12.73;;;;;;;;;;4398112;32;20343;-60
2021/11/24 11:41:09;;;;;;;26.47;12.43;;;;;;;;;;4398465;32;20259;-59
2021/11/24 11:43:35;;;;;;;17.37;12.23;;;;;;;;;;4398925;32;20241;-59
2021/11/24 11:46:19;;;;;;;18.70;10.77;;;;;;;;;;4398252;32;20461;-58
2021/11/24 11:48:45;;;;;;;24.90;15.47;;;;;;;;;;4398888;32;20224;-58
2021/11/24 11:51:13;;;;;;;22.87;13.73;;;;;;;;;;4399867;32;20222;-59
2021/11/24 11:54:00;;;;;;;17.70;10.57;;;;;;;;;;4399670;32;20240;-59
2021/11/24 11:56:27;;;;;;;18.13;10.50;;;;;;;;;;4399677;32;20218;-59
2021/11/24 11:59:07;;;;;;;17.07;10.07;;;;;;;;;;4406896;32;20317;-59
2021/11/24 12:01:35;;;;;;;14.50;9.37;;;;;;;;;;4412974;32;20237;-60
2021/11/24 12:04:09;;;;;;;14.93;10.33;;;;;;;;;;4413615;32;20225;-59
2021/11/24 12:06:46;;;;;;;18.90;11.63;;;;;;;;;;4414430;32;20649;-59
2021/11/24 12:09:14;;;;;;;22.43;11.60;;;;;;;;;;4416671;32;20271;-60
2021/11/24 12:11:58;;;;;;;30.70;13.80;;;;;;;;;;4416337;32;20242;-60
2021/11/24 12:14:39;;;;;;;12.17;7.77;;;;;;;;;;4417497;32;20300;-59
2021/11/24 12:17:33;;;;;;;23.93;11.73;;;;;;;;;;4416819;32;20556;-60
2021/11/24 12:20:29;;;;;;;20.00;11.40;;;;;;;;;;4418172;32;20296;-59
2021/11/24 12:23:00;;;;;;;40.77;21.93;;;;;;;;;;4416555;32;20664;-60
2021/11/24 12:25:29;;;;;;;28.47;16.13;;;;;;;;;;4417131;32;20358;-59
2021/11/24 12:27:58;;;;;;;18.50;11.17;;;;;;;;;;4417904;32;20299;-59
2021/11/24 12:30:52;;;;;;;21.23;11.87;;;;;;;;;;4417622;32;20558;-60
2021/11/24 12:33:30;;;;;;;37.17;20.63;;;;;;;;;;4416427;32;20686;-60
2021/11/24 12:36:03;;;;;;;26.57;17.77;;;;;;;;;;4416333;32;20251;-59
2021/11/24 12:38:39;;;;;;;23.83;14.27;;;;;;;;;;4416473;32;20233;-59
2021/11/24 12:41:20;;;;;;;17.57;11.70;;;;;;;;;;4417835;32;20657;-59
2021/11/24 12:43:51;;;;;;;245.47;79.57;;;;;;;;;;4417514;32;20974;-59
2021/11/24 12:46:17;;;;;;;26.47;13.83;;;;;;;;;;4417719;32;20727;-59
2021/11/24 12:49:00;;;;;;;16.13;10.80;;;;;;;;;;4416360;32;20912;-59
2021/11/24 12:51:49;;;;;;;14.27;9.93;;;;;;;;;;4417440;32;20213;-59
2021/11/24 12:54:27;;;;;;;30.43;15.50;;;;;;;;;;4417675;32;20282;-59
2021/11/24 12:56:57;;;;;;;29.60;15.67;;;;;;;;;;4417551;32;20260;-59
2021/11/24 12:59:25;;;;;;;16.77;11.00;;;;;;;;;;4416220;32;20277;-58
2021/11/24 13:01:54;;;;;;;12.97;9.17;;;;;;;;;;4416359;32;20248;-59
2021/11/24 13:04:30;;;;;;;12.73;8.67;;;;;;;;;;4417428;32;20233;-59
2021/11/24 13:06:56;;;;;;;12.63;8.97;;;;;;;;;;4417314;32;20265;-59
2021/11/24 13:09:31;;;;;;;101.10;35.50;;;;;;;;;;4416345;32;20364;-59
2021/11/24 13:12:03;;;;;;;373.87;129.77;;;;;;;;;;4417386;32;20247;-61
2021/11/24 13:14:35;;;;;;;35.60;17.97;;;;;;;;;;4417078;32;20224;-60
2021/11/24 13:17:01;;;;;;;43.30;18.97;;;;;;;;;;4417287;32;20224;-60
2021/11/24 13:19:38;;;;;;;63.10;28.57;;;;;;;;;;4417278;32;20290;-60
2021/11/24 13:22:05;;;;;;;153.17;60.10;;;;;;;;;;4416739;32;20245;-61
2021/11/24 13:24:31;;;;;;;52.60;26.87;;;;;;;;;;4417392;32;20279;-58
2021/11/24 13:26:58;;;;;;;59.33;24.80;;;;;;;;;;4417163;32;20270;-60
2021/11/24 13:29:28;;;;;;;21.23;11.97;;;;;;;;;;4416028;32;20254;-60
2021/11/24 13:32:11;;;;;;;15.33;10.67;;;;;;;;;;4415725;32;20245;-59
2021/11/24 13:34:39;;;;;;;14.17;9.50;;;;;;;;;;4417109;32;20806;-60
2021/11/24 13:37:05;;;;;;;16.57;9.70;;;;;;;;;;4417058;32;20576;-59
2021/11/24 13:39:32;;;;;;;27.70;12.07;;;;;;;;;;4417124;32;20281;-59
2021/11/24 13:42:16;;;;;;;15.80;10.30;;;;;;;;;;4416930;32;20280;-59
2021/11/24 13:44:55;;;;;;;13.83;10.27;;;;;;;;;;4416838;32;20288;-59
2021/11/24 13:47:22;;;;;;;22.53;12.93;;;;;;;;;;4415475;32;20290;-60
2021/11/24 13:49:48;;;;;;;33.70;20.03;;;;;;;;;;4415489;32;20415;-59
2021/11/24 13:52:15;;;;;;;18.47;11.83;;;;;;;;;;4416888;32;20319;-61
2021/11/24 13:54:49;;;;;;;25.67;15.90;;;;;;;;;;4415825;32;20332;-60
2021/11/24 13:57:17;;;;;;;23.40;13.90;;;;;;;;;;4416604;32;20256;-59
2021/11/24 13:59:45;;;;;;;22.97;13.27;;;;;;;;;;4416419;32;20294;-59
2021/11/24 14:02:33;;;;;;;20.10;14.20;;;;;;;;;;4415628;32;20280;-59
2021/11/24 14:05:06;;;;;;;17.13;11.63;;;;;;;;;;4415067;32;20739;-59
2021/11/24 14:07:36;;;;;;;22.23;13.77;;;;;;;;;;4416291;32;20209;-58
2021/11/24 14:10:15;;;;;;;21.30;13.97;;;;;;;;;;4415657;32;20395;-59
2021/11/24 14:12:42;;;;;;;23.40;14.57;;;;;;;;;;4413146;32;20251;-60
2021/11/24 14:15:13;;;;;;;25.30;14.57;;;;;;;;;;4413824;32;20791;-59
2021/11/24 14:18:00;;;;;;;19.10;12.00;;;;;;;;;;4409351;32;20286;-58
2021/11/24 14:20:35;;;;;;;28.90;16.40;;;;;;;;;;4401303;32;20240;-59
2021/11/24 14:23:08;;;;;;;22.07;14.53;;;;;;;;;;4398824;32;20244;-60
2021/11/24 14:25:33;;;;;;;27.27;15.40;;;;;;;;;;4397476;32;20244;-59